createdAt,value
2022-12-11T00:53:43.777Z,9.457224
2022-12-11T00:54:43.762Z,9.457274
2022-12-11T00:55:43.755Z,9.457298
2022-12-11T00:56:43.754Z,9.457193
2022-12-11T00:57:43.736Z,9.457246
2022-12-11T00:58:43.724Z,9.457185
2022-12-11T00:59:43.704Z,9.457080
2022-12-11T01:00:43.689Z,9.457128
2022-12-11T01:01:43.760Z,9.457002
2022-12-11T01:02:43.740Z,9.457019
2022-12-11T01:03:43.684Z,9.457061
2022-12-11T01:04:43.670Z,9.457108
2022-12-11T01:05:43.664Z,9.456977
2022-12-11T01:06:43.671Z,9.457207
2022-12-11T01:07:43.709Z,9.457086
2022-12-11T01:08:43.626Z,9.457262
2022-12-11T01:09:43.618Z,9.457178
2022-12-11T01:10:43.696Z,9.456863
2022-12-11T01:11:43.628Z,9.456880
2022-12-11T01:12:43.587Z,9.457103
2022-12-11T01:13:43.590Z,9.456791
2022-12-11T01:14:43.579Z,9.456987
2022-12-11T01:15:43.564Z,9.457112
2022-12-11T01:16:43.589Z,9.457236
2022-12-11T01:17:43.544Z,9.457167
2022-12-11T01:18:43.532Z,9.456922
2022-12-11T01:19:43.520Z,9.457040
2022-12-11T01:20:43.503Z,9.457037
2022-12-11T01:21:43.517Z,9.457226
2022-12-11T01:22:43.506Z,9.457210
2022-12-11T01:23:43.488Z,9.457281
2022-12-11T01:24:43.464Z,9.457245
2022-12-11T02:04:21.973Z,9.457446
2022-12-11T02:05:21.956Z,9.457427
2022-12-11T02:06:21.960Z,9.457310
2022-12-11T02:07:21.968Z,9.457144
2022-12-11T02:08:21.994Z,9.457531
2022-12-11T02:09:21.922Z,9.457620
2022-12-11T02:10:21.915Z,9.457771
2022-12-11T02:11:21.931Z,9.458112
2022-12-11T02:12:21.915Z,9.458078
2022-12-11T02:13:21.910Z,9.458073
2022-12-11T02:14:21.890Z,9.457737
2022-12-11T02:15:21.870Z,9.457726
2022-12-11T02:16:21.879Z,9.457726
2022-12-11T02:17:21.862Z,9.457726
2022-12-11T02:18:21.839Z,9.457726
2022-12-11T02:19:21.846Z,9.457795
2022-12-11T02:20:21.821Z,9.457795
2022-12-11T02:21:21.814Z,9.457795
2022-12-11T02:22:21.824Z,9.457795
2022-12-11T02:23:21.821Z,9.457795
2022-12-11T02:24:21.783Z,9.457316
2022-12-11T02:25:21.775Z,9.457273
2022-12-11T02:26:21.759Z,9.457383
2022-12-11T02:27:21.761Z,9.457342
2022-12-11T02:28:21.748Z,9.457160
2022-12-11T02:29:21.724Z,9.457251
2022-12-11T02:30:21.723Z,9.456721
2022-12-11T02:31:21.766Z,9.456619
2022-12-11T02:32:21.729Z,9.456378
2022-12-11T02:33:21.684Z,9.456343
2022-12-11T02:34:21.693Z,9.456684
2022-12-11T02:35:21.666Z,9.456721
2022-12-11T02:36:21.663Z,9.457241
2022-12-11T02:37:21.684Z,9.457321
2022-12-11T02:38:21.638Z,9.457228
2022-12-11T02:39:21.661Z,9.457246
2022-12-11T02:40:21.622Z,9.457343
2022-12-11T02:41:21.596Z,9.457289
2022-12-11T02:42:21.617Z,9.457107
2022-12-11T02:43:21.607Z,9.456936
2022-12-11T02:44:21.581Z,9.456727
2022-12-11T02:45:21.570Z,9.456800
2022-12-11T02:46:21.569Z,9.456764
2022-12-11T02:47:21.549Z,9.456679
2022-12-11T02:48:21.558Z,9.457244
2022-12-11T02:49:21.524Z,9.457579
2022-12-11T02:50:21.521Z,9.457494
2022-12-11T02:51:21.510Z,9.457460
2022-12-11T02:52:21.504Z,9.457427
2022-12-11T02:53:21.512Z,9.457482
2022-12-11T02:54:21.473Z,9.457384
2022-12-11T02:55:21.470Z,9.457378
2022-12-11T02:56:21.544Z,9.457415
2022-12-11T02:57:21.456Z,9.457319
2022-12-11T02:58:21.457Z,9.457370
2022-12-11T02:59:21.448Z,9.457323
2022-12-11T03:00:21.436Z,9.457481
2022-12-11T03:01:21.433Z,9.457385
2022-12-11T03:02:21.441Z,9.457454
2022-12-11T03:03:21.401Z,9.457596
2022-12-11T03:04:22.384Z,9.457471
2022-12-11T03:05:21.374Z,9.457331
2022-12-11T03:06:21.388Z,9.457429
2022-12-11T03:07:21.357Z,9.457358
2022-12-11T03:08:21.396Z,9.457283
2022-12-11T03:09:21.326Z,9.457367
2022-12-11T03:10:21.318Z,9.457353
2022-12-11T03:11:21.314Z,9.457289
2022-12-11T03:12:21.300Z,9.457370
2022-12-11T03:13:21.312Z,9.457310
2022-12-11T03:14:21.271Z,9.457350
2022-12-11T03:15:21.266Z,9.457328
2022-12-11T03:16:21.277Z,9.457286
2022-12-11T03:17:21.259Z,9.457383
2022-12-11T03:18:21.257Z,9.457471
2022-12-11T03:19:21.228Z,9.457446
2022-12-11T03:20:21.213Z,9.457407
2022-12-11T03:21:22.201Z,9.457371
2022-12-11T03:22:21.196Z,9.457447
2022-12-11T03:23:21.204Z,9.457509
2022-12-11T03:24:21.176Z,9.457545
2022-12-11T03:25:21.160Z,9.457451
2022-12-11T03:26:21.151Z,9.457327
2022-12-11T03:27:21.144Z,9.457343
2022-12-11T03:28:21.155Z,9.457271
2022-12-11T03:29:21.121Z,9.457371
2022-12-11T03:30:21.126Z,9.457355
2022-12-11T03:31:21.105Z,9.457333
2022-12-11T03:32:21.097Z,9.457350
2022-12-11T03:33:21.089Z,9.457277
2022-12-11T03:34:21.079Z,9.457252
2022-12-11T03:35:21.067Z,9.457270
2022-12-11T03:36:21.056Z,9.457374
2022-12-11T03:37:21.038Z,9.457417
2022-12-11T03:38:21.053Z,9.457388
2022-12-11T04:42:08.105Z,9.457593
2022-12-11T04:43:08.118Z,9.457581
2022-12-11T04:44:08.086Z,9.457348
2022-12-11T05:59:31.221Z,9.456805
2022-12-11T06:00:36.061Z,9.457215
2022-12-11T06:12:19.421Z,9.457146
2022-12-11T06:13:18.399Z,9.457751
2022-12-11T06:14:18.409Z,9.457486
2022-12-11T06:15:18.379Z,9.457414
2022-12-11T06:16:18.427Z,9.457561
2022-12-11T06:17:18.363Z,9.457567
2022-12-11T06:18:18.345Z,9.457849
2022-12-11T06:19:18.366Z,9.457361
2022-12-11T06:20:18.335Z,9.457868
2022-12-11T06:21:18.323Z,9.457814
2022-12-11T06:22:18.307Z,9.457859
2022-12-11T06:23:18.294Z,9.457793
2022-12-11T06:24:18.307Z,9.457486
2022-12-11T06:25:18.310Z,9.457847
2022-12-11T06:26:18.268Z,9.457653
2022-12-11T06:27:18.253Z,9.457412
2022-12-11T06:28:18.245Z,9.457509
2022-12-11T06:29:18.253Z,9.457367
2022-12-11T06:30:18.244Z,9.456944
2022-12-11T06:31:18.283Z,9.456809
2022-12-11T06:32:18.207Z,9.457954
2022-12-11T06:33:18.196Z,9.457697
2022-12-11T06:34:18.196Z,9.457150
2022-12-11T06:35:18.171Z,9.457350
2022-12-11T06:36:18.164Z,9.457242
2022-12-11T06:37:18.172Z,9.457113
2022-12-11T06:38:18.147Z,9.457275
2022-12-11T06:39:18.178Z,9.457261
2022-12-11T06:40:18.141Z,9.457252
2022-12-11T06:41:18.129Z,9.457268
2022-12-11T06:42:18.123Z,9.457228
2022-12-11T06:43:18.103Z,9.457175
2022-12-11T06:44:18.117Z,9.457548
2022-12-11T06:45:18.089Z,9.457389
2022-12-11T06:46:18.103Z,9.457408
2022-12-11T06:47:18.069Z,9.457286
2022-12-11T06:48:18.083Z,9.457937
2022-12-11T06:49:18.067Z,9.457466
2022-12-11T06:50:18.032Z,9.457747
2022-12-11T06:51:18.018Z,9.457866
2022-12-11T06:52:18.714Z,9.458069
2022-12-11T06:53:18.998Z,9.457701
2022-12-11T06:54:18.009Z,9.457507
2022-12-11T06:55:17.979Z,9.458025
2022-12-11T06:56:17.983Z,9.457910
2022-12-11T06:57:17.961Z,9.457898
2022-12-11T06:58:17.957Z,9.458056
2022-12-11T06:59:17.971Z,9.458104
2022-12-11T07:00:17.938Z,9.457626
2022-12-11T07:01:18.002Z,9.457574
2022-12-11T07:02:17.955Z,9.457739
2022-12-11T07:03:17.905Z,9.457570
2022-12-11T07:04:17.918Z,9.457780
2022-12-11T07:05:17.883Z,9.458084
2022-12-11T07:06:17.880Z,9.457729
2022-12-11T07:07:17.860Z,9.457773
2022-12-11T07:08:17.912Z,9.457655
2022-12-11T07:09:17.862Z,9.457294
2022-12-11T07:10:17.831Z,9.457272
2022-12-11T07:11:17.814Z,9.457060
2022-12-11T07:12:17.813Z,9.457073
2022-12-11T07:13:17.803Z,9.456756
2022-12-11T07:14:17.814Z,9.456376
2022-12-11T07:15:17.782Z,9.456608
2022-12-11T07:16:17.903Z,9.456688
2022-12-11T07:17:17.767Z,9.457061
2022-12-11T07:18:17.747Z,9.457376
2022-12-11T07:19:17.777Z,9.457377
2022-12-11T07:20:17.722Z,9.457114
2022-12-11T07:21:18.806Z,9.456706
2022-12-11T07:22:17.701Z,9.455591
2022-12-11T07:23:17.703Z,9.455591
2022-12-11T07:24:17.711Z,9.455591
2022-12-11T07:25:17.671Z,9.455591
2022-12-11T07:26:17.679Z,9.455591
2022-12-11T07:27:17.657Z,9.455591
2022-12-11T07:28:17.657Z,9.457294
2022-12-11T07:29:17.656Z,9.457294
2022-12-11T07:30:17.634Z,9.457194
2022-12-11T07:31:17.726Z,9.456832
2022-12-11T07:32:17.691Z,9.457465
2022-12-11T07:33:17.600Z,9.457364
2022-12-11T07:34:17.605Z,9.457423
2022-12-11T07:35:17.579Z,9.457282
2022-12-11T07:36:17.565Z,9.457504
2022-12-11T07:37:17.565Z,9.457493
2022-12-11T07:38:17.548Z,9.457375
2022-12-11T07:39:17.617Z,9.457375
2022-12-11T07:40:17.535Z,9.457375
2022-12-11T07:41:17.526Z,9.457307
2022-12-11T07:42:17.503Z,9.457367
2022-12-11T07:43:17.511Z,9.457384
2022-12-11T07:44:17.523Z,9.457382
2022-12-11T07:45:17.491Z,9.457293
2022-12-11T07:46:17.488Z,9.457429
2022-12-11T07:47:17.467Z,9.457378
2022-12-11T07:48:17.466Z,9.457236
2022-12-11T07:49:17.468Z,9.457220
2022-12-11T07:50:17.438Z,9.457145
2022-12-11T07:51:17.431Z,9.457363
2022-12-11T07:52:49.324Z,9.457140
2022-12-11T07:53:17.411Z,9.457329
2022-12-11T07:54:17.402Z,9.456664
2022-12-11T07:55:17.396Z,9.457127
2022-12-11T07:56:17.383Z,9.457155
2022-12-11T07:57:17.374Z,9.457295
2022-12-11T07:58:17.351Z,9.457284
2022-12-11T07:59:17.379Z,9.457328
2022-12-11T08:00:17.366Z,9.457352
2022-12-11T08:01:17.378Z,9.457314
2022-12-11T08:02:17.360Z,9.457378
2022-12-11T08:03:17.338Z,9.457302
2022-12-11T08:04:17.325Z,9.457314
2022-12-11T08:05:17.321Z,9.457297
2022-12-11T08:06:17.284Z,9.457170
2022-12-11T08:07:17.275Z,9.457193
2022-12-11T08:08:17.357Z,9.457253
2022-12-11T08:09:20.979Z,9.457342
2022-12-11T08:10:18.235Z,9.457307
2022-12-11T08:11:17.234Z,9.457203
2022-12-11T08:12:17.237Z,9.457208
2022-12-11T08:13:17.211Z,9.457229
2022-12-11T08:14:17.208Z,9.457254
2022-12-11T08:15:17.195Z,9.457194
2022-12-11T08:16:17.224Z,9.457151
2022-12-11T08:17:17.177Z,9.457226
2022-12-11T08:18:17.151Z,9.456679
2022-12-11T08:19:17.176Z,9.457034
2022-12-11T08:20:17.150Z,9.457195
2022-12-11T08:21:17.135Z,9.457148
2022-12-11T08:22:17.128Z,9.457224
2022-12-11T08:23:17.131Z,9.457145
2022-12-11T08:24:17.123Z,9.457030
2022-12-11T08:25:17.094Z,9.457040
2022-12-11T08:26:17.132Z,9.457229
2022-12-11T08:27:17.078Z,9.457262
2022-12-11T08:28:17.071Z,9.457272
2022-12-11T08:29:17.080Z,9.457236
2022-12-11T08:30:17.052Z,9.457063
2022-12-11T08:31:17.056Z,9.457104
2022-12-11T08:32:17.030Z,9.457240
2022-12-11T08:33:17.013Z,9.457166
2022-12-11T08:34:17.007Z,9.457289
2022-12-11T08:35:17.021Z,9.457376
2022-12-11T08:36:16.978Z,9.457179
2022-12-11T08:37:16.979Z,9.457209
2022-12-11T08:38:19.674Z,9.457216
2022-12-11T08:39:17.972Z,9.457239
2022-12-11T08:40:16.944Z,9.457165
2022-12-11T08:41:16.932Z,9.457136
2022-12-11T08:42:16.932Z,9.457037
2022-12-11T08:43:16.953Z,9.457129
2022-12-11T08:44:17.193Z,9.457315
2022-12-11T08:45:16.927Z,9.457420
2022-12-11T08:46:16.902Z,9.457275
2022-12-11T08:47:16.868Z,9.457215
2022-12-11T08:48:16.865Z,9.457399
2022-12-11T08:49:16.841Z,9.457267
2022-12-11T08:50:16.848Z,9.457253
2022-12-11T08:51:16.857Z,9.457183
2022-12-11T08:52:16.816Z,9.457056
2022-12-11T08:53:16.811Z,9.457145
2022-12-11T08:54:16.787Z,9.457193
2022-12-11T08:55:16.805Z,9.457122
2022-12-11T08:56:16.782Z,9.457231
2022-12-11T08:57:16.769Z,9.457257
2022-12-11T08:58:16.768Z,9.457272
2022-12-11T08:59:16.806Z,9.457159
2022-12-11T09:00:16.755Z,9.457166
2022-12-11T09:01:16.785Z,9.457021
2022-12-11T09:02:16.726Z,9.457127
2022-12-11T09:03:16.811Z,9.457425
2022-12-11T09:04:16.707Z,9.457259
2022-12-11T09:05:16.712Z,9.457215
2022-12-11T09:06:16.680Z,9.457295
2022-12-11T09:07:16.667Z,9.457101
2022-12-11T09:08:16.692Z,9.457383
2022-12-11T09:09:16.649Z,9.457680
2022-12-11T09:10:16.655Z,9.457311
2022-12-11T09:11:16.644Z,9.457176
2022-12-11T09:12:16.624Z,9.457187
2022-12-11T09:13:16.617Z,9.457258
2022-12-11T09:14:16.603Z,9.456708
2022-12-11T09:15:16.614Z,9.456962
2022-12-11T09:16:16.649Z,9.457273
2022-12-11T09:17:16.587Z,9.457291
2022-12-11T09:18:16.562Z,9.457273
2022-12-11T09:19:16.565Z,9.457280
2022-12-11T09:20:16.567Z,9.457298
2022-12-11T09:21:16.542Z,9.457369
2022-12-11T09:22:16.517Z,9.457364
2022-12-11T09:23:16.522Z,9.457346
2022-12-11T09:24:16.522Z,9.457345
2022-12-11T09:25:16.530Z,9.457318
2022-12-11T09:26:16.492Z,9.457306
2022-12-11T09:27:16.474Z,9.457287
2022-12-11T09:28:16.476Z,9.457287
2022-12-11T09:29:16.461Z,9.457312
2022-12-11T09:30:16.466Z,9.457284
2022-12-11T09:31:16.500Z,9.457285
2022-12-11T09:32:16.435Z,9.457268
2022-12-11T09:33:16.426Z,9.457244
2022-12-11T09:34:16.479Z,9.457289
2022-12-11T09:35:16.426Z,9.457287
2022-12-11T09:36:16.409Z,9.457298
2022-12-11T09:37:16.396Z,9.457287
2022-12-11T09:38:16.381Z,9.457263
2022-12-11T09:39:16.374Z,9.457306
2022-12-11T09:40:16.397Z,9.457345
2022-12-11T09:41:16.352Z,9.457346
2022-12-11T09:42:16.323Z,9.457331
2022-12-11T09:43:16.314Z,9.457280
2022-12-11T09:44:16.331Z,9.457358
2022-12-11T09:45:16.320Z,9.457430
2022-12-11T09:46:16.322Z,9.457370
2022-12-11T09:47:16.281Z,9.457202
2022-12-11T09:48:16.277Z,9.457170
2022-12-11T09:49:16.263Z,9.457219
2022-12-11T09:50:16.259Z,9.457351
2022-12-11T09:51:16.256Z,9.457447
2022-12-11T09:52:21.232Z,9.457537
2022-12-11T09:53:16.232Z,9.457390
2022-12-11T09:54:18.036Z,9.457236
2022-12-11T09:55:16.228Z,9.457071
2022-12-11T09:56:16.194Z,9.457314
2022-12-11T09:57:16.185Z,9.457424
